Time;durP1;ratioP1;P1;durP2;ratioP2;P2;SDS_P1;SDS_P2;PMS_P1;PMS_P2;Temp;Humidity;BMP_temperature;BMP_pressure;BME280_temperature;BME280_humidity;BME280_pressure;Samples;Min_cycle;Max_cycle;Signal;HPM_P1;HPM_P2
2023/07/23 00:02:03;;;;;;;4.33;3.93;;;17.40;99.90;;;;;;5012022;28;20442;-70
2023/07/23 00:04:32;;;;;;;6.63;4.37;;;17.50;99.90;;;;;;5010904;28;20442;-69
2023/07/23 00:07:00;;;;;;;4.70;4.30;;;17.50;99.90;;;;;;5030930;28;20514;-68
2023/07/23 00:09:28;;;;;;;4.13;3.73;;;17.50;99.90;;;;;;5030828;28;20449;-67
2023/07/23 00:11:56;;;;;;;4.73;3.50;;;17.50;99.90;;;;;;5031044;28;20477;-68
2023/07/23 00:14:24;;;;;;;4.63;4.13;;;17.50;99.90;;;;;;5029625;28;20799;-67
2023/07/23 00:16:53;;;;;;;5.03;4.30;;;17.40;99.90;;;;;;5031099;28;20449;-69
2023/07/23 00:19:21;;;;;;;4.77;4.30;;;17.30;99.90;;;;;;5021306;28;21064;-68
2023/07/23 00:21:50;;;;;;;4.37;4.00;;;17.40;99.90;;;;;;5029312;28;20497;-68
2023/07/23 00:24:19;;;;;;;5.63;4.00;;;17.50;99.90;;;;;;5027182;28;20469;-67
2023/07/23 00:26:47;;;;;;;4.87;3.90;;;17.50;99.90;;;;;;5030860;28;20440;-68
2023/07/23 00:29:15;;;;;;;4.57;3.60;;;17.50;99.90;;;;;;5030896;28;20449;-67
2023/07/23 00:31:43;;;;;;;5.43;4.07;;;17.50;99.90;;;;;;5030926;28;20472;-67
2023/07/23 00:34:11;;;;;;;4.43;4.03;;;17.40;99.90;;;;;;5030216;28;20445;-68
2023/07/23 00:36:39;;;;;;;4.60;3.57;;;17.50;99.90;;;;;;5030875;28;20472;-68
2023/07/23 00:39:09;;;;;;;4.83;3.87;;;17.60;99.90;;;;;;5016996;28;20844;-68
2023/07/23 00:41:37;;;;;;;4.17;3.77;;;17.70;99.90;;;;;;5030666;28;20510;-66
2023/07/23 00:44:05;;;;;;;5.10;3.87;;;17.60;99.90;;;;;;5030750;28;20507;-66
2023/07/23 00:46:33;;;;;;;5.70;3.73;;;17.50;99.90;;;;;;5030628;28;20452;-66
2023/07/23 00:49:04;;;;;;;4.70;4.30;;;17.50;99.90;;;;;;5035535;28;20453;-68
2023/07/23 00:51:33;;;;;;;5.07;3.60;;;17.50;99.90;;;;;;5033470;28;20468;-67
2023/07/23 00:54:01;;;;;;;4.93;4.30;;;17.40;99.90;;;;;;5031790;28;20452;-68
2023/07/23 00:56:31;;;;;;;5.17;3.87;;;17.20;99.90;;;;;;5032711;28;20528;-67
2023/07/23 00:58:59;;;;;;;4.17;3.77;;;17.20;99.90;;;;;;5034400;28;20486;-67
2023/07/23 01:01:30;;;;;;;4.87;3.97;;;17.10;99.90;;;;;;5030920;28;20548;-68
2023/07/23 01:03:58;;;;;;;3.80;3.50;;;17.10;99.90;;;;;;5030665;28;20954;-68
2023/07/23 01:06:28;;;;;;;5.03;4.07;;;17.20;99.90;;;;;;5038202;28;20448;-66
2023/07/23 01:08:57;;;;;;;4.40;3.90;;;17.20;99.90;;;;;;5044485;28;20480;-66
2023/07/23 01:11:26;;;;;;;5.93;3.60;;;17.20;99.90;;;;;;5018958;28;20843;-67
2023/07/23 01:13:57;;;;;;;4.37;3.20;;;17.20;99.90;;;;;;5010665;28;21040;-68
2023/07/23 01:16:26;;;;;;;4.20;3.80;;;17.20;99.90;;;;;;5010972;28;20438;-66
2023/07/23 01:18:54;;;;;;;3.53;3.10;;;17.20;99.90;;;;;;5010152;28;20568;-67
2023/07/23 01:21:22;;;;;;;4.93;3.60;;;17.10;99.90;;;;;;5010349;28;20466;-67
2023/07/23 01:23:52;;;;;;;4.10;3.53;;;17.20;99.90;;;;;;5010097;28;20438;-68
2023/07/23 01:26:20;;;;;;;3.57;3.27;;;17.30;99.90;;;;;;5009730;28;20434;-67
2023/07/23 01:28:48;;;;;;;4.63;3.70;;;17.20;99.90;;;;;;5011398;28;20446;-67
2023/07/23 01:31:16;;;;;;;3.47;3.17;;;17.20;99.90;;;;;;5010076;28;20470;-66
2023/07/23 01:33:45;;;;;;;4.33;3.77;;;17.10;99.90;;;;;;5009820;28;20529;-66
2023/07/23 01:36:15;;;;;;;4.63;3.50;;;17.10;99.90;;;;;;5009728;28;20456;-66
2023/07/23 01:38:42;;;;;;;3.97;3.57;;;17.00;99.90;;;;;;5010042;28;20447;-66
2023/07/23 01:41:12;;;;;;;3.67;3.37;;;16.90;99.90;;;;;;5009923;28;20523;-67
2023/07/23 01:43:40;;;;;;;3.90;3.50;;;16.90;99.90;;;;;;5012272;28;20449;-68
2023/07/23 01:46:08;;;;;;;3.73;3.40;;;16.80;99.90;;;;;;5029659;28;20445;-68
2023/07/23 01:48:36;;;;;;;5.27;3.30;;;16.80;99.90;;;;;;5029958;28;20464;-66
2023/07/23 01:51:04;;;;;;;4.07;3.70;;;16.80;99.90;;;;;;5022741;28;20469;-67
2023/07/23 01:53:32;;;;;;;4.00;3.33;;;16.90;99.90;;;;;;5009095;28;20452;-67
2023/07/23 01:56:02;;;;;;;4.30;3.40;;;16.90;99.90;;;;;;5009490;28;20449;-66
2023/07/23 01:58:31;;;;;;;4.33;3.93;;;16.90;99.90;;;;;;5010199;28;20445;-67
2023/07/23 02:01:00;;;;;;;3.70;3.40;;;16.90;99.90;;;;;;5009427;28;20825;-68
2023/07/23 02:03:28;;;;;;;4.53;3.40;;;17.00;99.90;;;;;;5008668;28;20473;-68
2023/07/23 02:05:57;;;;;;;3.00;2.80;;;17.10;99.90;;;;;;5021725;28;20502;-68
2023/07/23 02:08:25;;;;;;;4.70;3.70;;;17.20;99.90;;;;;;5029209;28;21050;-68
2023/07/23 02:10:58;;;;;;;4.50;2.97;;;17.20;99.90;;;;;;5028728;28;20877;-67
2023/07/23 02:13:26;;;;;;;3.83;3.47;;;17.20;99.90;;;;;;5029429;28;20481;-67
2023/07/23 02:15:56;;;;;;;3.57;3.23;;;17.20;99.90;;;;;;5029484;28;20483;-66
2023/07/23 02:18:24;;;;;;;3.90;3.50;;;17.40;99.90;;;;;;5029292;28;20453;-67
2023/07/23 02:20:52;;;;;;;3.60;3.30;;;17.40;99.90;;;;;;5025036;28;20484;-68
2023/07/23 02:23:20;;;;;;;5.00;3.20;;;17.40;99.90;;;;;;5009425;28;20442;-66
2023/07/23 02:25:49;;;;;;;4.30;3.27;;;17.40;99.90;;;;;;5009997;28;20865;-67
2023/07/23 02:28:17;;;;;;;3.60;3.30;;;17.50;99.50;;;;;;5009692;28;20449;-68
2023/07/23 02:30:45;;;;;;;3.57;3.27;;;17.60;99.30;;;;;;5009456;28;20557;-67
2023/07/23 02:33:14;;;;;;;3.03;2.70;;;17.50;99.80;;;;;;5008820;28;20438;-68
2023/07/23 02:35:43;;;;;;;4.90;3.40;;;17.60;99.40;;;;;;5009269;28;20473;-68
2023/07/23 02:38:11;;;;;;;5.47;2.97;;;17.50;99.20;;;;;;5023800;28;20523;-67
2023/07/23 02:40:39;;;;;;;3.40;3.10;;;17.60;99.00;;;;;;5033287;28;20488;-68
2023/07/23 02:43:11;;;;;;;4.10;3.53;;;17.50;99.00;;;;;;5032916;28;20455;-68
2023/07/23 02:45:40;;;;;;;3.47;3.00;;;17.50;99.00;;;;;;5033325;28;20456;-66
2023/07/23 02:48:08;;;;;;;3.57;2.90;;;17.50;99.40;;;;;;5033063;28;20451;-67
2023/07/23 02:50:39;;;;;;;4.77;3.57;;;17.50;99.30;;;;;;5032930;28;20465;-66
2023/07/23 02:53:07;;;;;;;3.43;2.87;;;17.60;98.60;;;;;;5031835;28;20501;-66
2023/07/23 02:55:35;;;;;;;3.60;3.10;;;17.60;99.00;;;;;;5013265;28;21155;-66
2023/07/23 02:58:04;;;;;;;4.53;3.70;;;17.60;98.90;;;;;;5013394;28;20446;-69
2023/07/23 03:00:32;;;;;;;4.50;3.50;;;17.70;98.30;;;;;;5013245;28;20485;-68
2023/07/23 03:03:00;;;;;;;3.47;3.17;;;17.70;98.40;;;;;;5018487;28;20537;-68
2023/07/23 03:05:28;;;;;;;4.30;3.53;;;17.70;98.40;;;;;;5036429;28;20448;-67
2023/07/23 03:07:57;;;;;;;4.07;3.40;;;17.60;98.40;;;;;;5038181;28;20551;-67
2023/07/23 03:10:25;;;;;;;3.37;3.07;;;17.60;98.30;;;;;;5029064;28;20493;-65
2023/07/23 03:12:53;;;;;;;4.57;3.83;;;17.50;98.90;;;;;;5035587;28;20444;-66
2023/07/23 03:15:22;;;;;;;3.47;3.17;;;17.50;98.80;;;;;;5052253;28;20509;-66
2023/07/23 03:17:50;;;;;;;4.43;4.03;;;17.50;99.00;;;;;;5043209;28;20449;-66
2023/07/23 03:20:18;;;;;;;3.50;3.20;;;17.40;98.60;;;;;;5034129;28;20542;-67
2023/07/23 03:22:47;;;;;;;5.60;3.03;;;17.50;98.70;;;;;;5032145;28;20492;-67
2023/07/23 03:25:16;;;;;;;5.23;3.43;;;17.40;98.90;;;;;;5032104;28;20878;-68
2023/07/23 03:27:45;;;;;;;4.40;3.03;;;17.50;98.60;;;;;;5014250;28;20974;-67
2023/07/23 03:30:13;;;;;;;4.60;3.47;;;17.40;99.80;;;;;;5012276;28;20491;-67
2023/07/23 03:32:41;;;;;;;4.00;3.60;;;17.40;99.00;;;;;;5012237;28;20446;-68
2023/07/23 03:35:09;;;;;;;4.03;3.10;;;17.30;99.30;;;;;;5012177;28;20469;-68
2023/07/23 03:37:37;;;;;;;4.20;3.70;;;17.20;99.60;;;;;;5012038;28;20460;-69
2023/07/23 03:40:06;;;;;;;5.50;3.40;;;17.20;99.50;;;;;;5011751;28;20580;-68
2023/07/23 03:42:36;;;;;;;3.93;3.37;;;17.20;99.50;;;;;;5012798;28;20795;-67
2023/07/23 03:45:04;;;;;;;4.60;4.17;;;17.20;99.50;;;;;;5012379;28;20598;-69
2023/07/23 03:47:32;;;;;;;3.43;3.13;;;17.10;99.90;;;;;;5011649;28;20887;-67
2023/07/23 03:50:00;;;;;;;4.43;3.43;;;17.10;99.90;;;;;;5011400;28;20470;-68
2023/07/23 03:52:28;;;;;;;3.90;3.50;;;17.20;99.60;;;;;;5028892;28;20476;-68
2023/07/23 03:54:56;;;;;;;3.60;3.30;;;17.20;99.80;;;;;;5031473;28;20457;-68
2023/07/23 03:57:24;;;;;;;3.23;2.93;;;17.20;99.40;;;;;;5032101;28;20449;-67
2023/07/23 03:59:53;;;;;;;4.47;2.80;;;17.20;99.30;;;;;;5031855;28;20527;-66
2023/07/23 04:02:21;;;;;;;2.93;2.50;;;17.20;99.50;;;;;;5031783;28;20464;-67
2023/07/23 04:04:49;;;;;;;3.73;3.43;;;17.20;99.00;;;;;;5028578;28;21010;-66
2023/07/23 04:07:17;;;;;;;4.10;2.90;;;17.20;99.80;;;;;;5011748;28;20459;-67
2023/07/23 04:09:45;;;;;;;3.43;2.60;;;17.20;99.40;;;;;;5011689;28;20462;-67
2023/07/23 04:12:13;;;;;;;3.97;3.13;;;17.20;99.10;;;;;;5011691;28;20442;-68
2023/07/23 04:14:43;;;;;;;5.33;3.57;;;17.20;99.70;;;;;;5011760;28;20470;-66
2023/07/23 04:17:13;;;;;;;2.87;2.57;;;17.20;98.90;;;;;;5011724;28;20454;-66
2023/07/23 04:19:45;;;;;;;3.37;2.80;;;17.20;99.00;;;;;;5011613;28;20522;-67
2023/07/23 04:22:13;;;;;;;4.20;2.60;;;17.20;99.90;;;;;;5012222;28;21078;-66
2023/07/23 04:24:40;;;;;;;6.73;3.10;;;17.20;99.90;;;;;;5015345;28;20449;-66
2023/07/23 04:27:08;;;;;;;2.90;2.60;;;17.20;99.90;;;;;;5050800;28;20958;-67
2023/07/23 04:29:36;;;;;;;3.13;2.83;;;17.30;99.20;;;;;;5051278;28;20494;-68
2023/07/23 04:32:05;;;;;;;2.93;2.60;;;17.30;99.90;;;;;;5050382;28;20436;-67
2023/07/23 04:34:34;;;;;;;3.27;2.80;;;17.40;99.10;;;;;;5050630;28;20436;-67
2023/07/23 04:37:03;;;;;;;3.60;3.30;;;17.50;99.50;;;;;;5049000;28;20927;-68
2023/07/23 04:39:30;;;;;;;3.43;2.80;;;17.40;99.90;;;;;;5011346;28;20482;-67
2023/07/23 04:41:58;;;;;;;3.93;3.50;;;17.50;99.90;;;;;;5012927;28;20513;-68
2023/07/23 04:44:27;;;;;;;3.40;3.10;;;17.50;99.90;;;;;;5024923;28;20485;-68
2023/07/23 04:46:54;;;;;;;3.57;2.93;;;17.40;99.90;;;;;;5034156;28;20459;-69
2023/07/23 04:49:22;;;;;;;2.83;2.53;;;17.50;99.90;;;;;;5028736;28;20847;-69
2023/07/23 04:51:52;;;;;;;3.53;2.63;;;17.50;99.20;;;;;;5034156;28;20913;-69
2023/07/23 04:54:20;;;;;;;3.20;2.90;;;17.60;99.90;;;;;;5038584;28;20445;-68
2023/07/23 04:56:47;;;;;;;2.93;2.73;;;17.60;99.60;;;;;;5047799;28;20802;-67
2023/07/23 04:59:15;;;;;;;3.73;3.00;;;17.70;99.40;;;;;;5050236;28;20770;-67
2023/07/23 05:01:43;;;;;;;3.53;3.03;;;17.80;99.10;;;;;;5037212;28;20481;-66
2023/07/23 05:04:11;;;;;;;3.10;2.80;;;17.80;98.90;;;;;;5031253;28;20441;-67
2023/07/23 05:06:40;;;;;;;3.30;3.00;;;17.80;99.00;;;;;;5030758;28;20507;-67
2023/07/23 05:09:10;;;;;;;3.20;2.90;;;17.80;98.90;;;;;;5030299;28;20515;-66
2023/07/23 05:11:37;;;;;;;3.83;2.93;;;17.80;98.60;;;;;;5012852;28;20562;-67
2023/07/23 05:14:05;;;;;;;4.30;2.90;;;18.00;98.50;;;;;;5010407;28;20445;-68
2023/07/23 05:16:33;;;;;;;3.27;2.97;;;18.10;98.30;;;;;;5010476;28;20513;-68
2023/07/23 05:19:01;;;;;;;3.63;3.07;;;18.10;98.20;;;;;;5011622;28;20449;-68
2023/07/23 05:21:30;;;;;;;3.17;2.87;;;18.00;98.10;;;;;;5048548;28;20487;-68
2023/07/23 05:23:58;;;;;;;4.03;3.10;;;18.20;98.20;;;;;;5049628;28;20802;-66
2023/07/23 05:26:28;;;;;;;3.10;2.73;;;18.40;97.80;;;;;;5040737;28;20545;-66
2023/07/23 05:28:56;;;;;;;4.63;3.30;;;18.60;97.70;;;;;;5010401;28;20542;-68
2023/07/23 05:31:24;;;;;;;3.10;2.70;;;18.50;98.10;;;;;;5009664;28;20551;-67
2023/07/23 05:33:52;;;;;;;4.47;3.63;;;18.60;97.50;;;;;;5009871;28;20452;-68
2023/07/23 05:36:20;;;;;;;3.90;2.90;;;18.60;97.40;;;;;;5010546;28;20437;-68
2023/07/23 05:38:47;;;;;;;3.40;3.10;;;18.80;96.80;;;;;;5010314;28;20449;-66
2023/07/23 05:41:15;;;;;;;4.80;2.80;;;18.80;96.70;;;;;;5010324;28;20979;-66
2023/07/23 05:43:45;;;;;;;2.87;2.57;;;19.00;95.90;;;;;;5023300;28;20484;-66
2023/07/23 05:46:13;;;;;;;4.10;3.50;;;19.10;96.50;;;;;;5029768;28;20468;-66
2023/07/23 05:48:41;;;;;;;2.73;2.53;;;19.20;95.60;;;;;;5029946;28;20476;-66
2023/07/23 05:51:09;;;;;;;3.37;3.00;;;19.40;95.50;;;;;;5022605;28;20469;-66
2023/07/23 05:53:37;;;;;;;2.83;2.63;;;19.40;95.90;;;;;;5009371;28;20881;-67
2023/07/23 05:56:05;;;;;;;3.07;2.77;;;19.50;95.80;;;;;;5009265;28;20867;-67
2023/07/23 05:58:33;;;;;;;2.83;2.60;;;19.40;96.10;;;;;;5009935;28;20455;-66
2023/07/23 06:01:04;;;;;;;3.50;2.90;;;19.40;96.70;;;;;;5009707;28;20453;-67
2023/07/23 06:03:32;;;;;;;2.80;2.60;;;19.60;96.50;;;;;;5009352;28;20504;-68
2023/07/23 06:06:20;;;;;;;3.37;2.77;;;19.60;96.10;;;;;;5024761;28;20445;-67
2023/07/23 06:08:48;;;;;;;3.00;2.43;;;19.90;95.80;;;;;;5028997;28;20453;-67
2023/07/23 06:11:16;;;;;;;3.40;2.93;;;20.30;94.80;;;;;;5031090;28;20460;-69
2023/07/23 06:13:44;;;;;;;3.73;2.47;;;20.60;94.10;;;;;;5032832;28;20444;-68
2023/07/23 06:16:14;;;;;;;3.07;2.77;;;21.10;93.60;;;;;;5032177;28;21047;-67
2023/07/23 06:18:42;;;;;;;3.13;2.70;;;21.50;91.30;;;;;;5032961;28;20456;-66
2023/07/23 06:21:10;;;;;;;3.17;2.77;;;21.90;90.50;;;;;;5030540;28;20477;-66
2023/07/23 06:23:38;;;;;;;2.73;2.53;;;22.30;87.40;;;;;;5013389;28;20449;-66
2023/07/23 06:26:09;;;;;;;2.93;2.57;;;22.50;85.50;;;;;;5012755;28;20485;-67
2023/07/23 06:28:39;;;;;;;2.87;2.67;;;22.60;84.00;;;;;;5013308;28;20477;-68
2023/07/23 06:31:07;;;;;;;3.07;2.80;;;22.50;81.60;;;;;;5013279;28;20523;-69
2023/07/23 06:33:36;;;;;;;5.63;2.43;;;22.40;82.90;;;;;;5012981;28;20442;-68
2023/07/23 06:36:07;;;;;;;3.30;3.00;;;22.30;82.00;;;;;;5013249;28;20488;-66
2023/07/23 06:38:35;;;;;;;3.67;2.70;;;22.30;81.60;;;;;;5014093;28;20449;-66
2023/07/23 06:41:03;;;;;;;3.13;2.83;;;22.30;81.30;;;;;;5013343;28;20489;-66
2023/07/23 06:43:31;;;;;;;3.37;3.07;;;22.40;80.50;;;;;;5013004;28;20552;-67
2023/07/23 06:45:59;;;;;;;2.87;2.67;;;22.40;81.00;;;;;;5013426;28;20512;-66
2023/07/23 06:48:28;;;;;;;3.17;2.60;;;22.60;79.40;;;;;;5013463;28;20548;-66
2023/07/23 06:50:59;;;;;;;3.03;2.80;;;22.60;80.60;;;;;;5013376;28;21061;-68
2023/07/23 06:53:30;;;;;;;3.40;3.10;;;22.80;80.60;;;;;;5012991;28;20442;-66
2023/07/23 06:56:01;;;;;;;2.30;2.10;;;22.90;78.30;;;;;;5014144;28;20453;-67
2023/07/23 06:58:30;;;;;;;3.03;2.50;;;23.10;77.90;;;;;;5013002;28;20526;-67
2023/07/23 07:00:58;;;;;;;5.67;2.83;;;23.40;77.40;;;;;;5012884;28;20466;-69
2023/07/23 07:03:26;;;;;;;2.87;2.60;;;23.60;76.50;;;;;;5012390;28;20539;-68
2023/07/23 07:05:55;;;;;;;3.90;2.70;;;23.80;73.50;;;;;;5013045;28;20862;-67
2023/07/23 07:08:27;;;;;;;3.70;3.13;;;23.90;73.00;;;;;;5013045;28;20507;-68
2023/07/23 07:11:01;;;;;;;3.93;3.20;;;23.80;72.00;;;;;;5012959;28;20975;-67
2023/07/23 07:13:30;;;;;;;2.90;2.70;;;23.60;73.80;;;;;;5036712;28;20476;-67
2023/07/23 07:15:58;;;;;;;4.20;2.70;;;23.40;72.80;;;;;;5051222;28;20530;-67
2023/07/23 07:18:27;;;;;;;3.40;3.10;;;23.20;73.00;;;;;;5051628;28;20443;-68
2023/07/23 07:20:59;;;;;;;3.53;2.50;;;23.10;74.40;;;;;;5052245;28;21025;-69
2023/07/23 07:23:31;;;;;;;4.43;2.97;;;22.90;72.70;;;;;;5050517;28;20577;-67
2023/07/23 07:26:02;;;;;;;4.47;2.70;;;22.80;76.20;;;;;;5052508;28;20450;-69
2023/07/23 07:28:34;;;;;;;6.20;3.47;;;22.90;73.20;;;;;;5042904;28;20449;-68
2023/07/23 07:31:03;;;;;;;4.07;2.80;;;23.00;75.80;;;;;;5019089;28;20465;-67
2023/07/23 07:33:31;;;;;;;2.97;2.67;;;23.30;74.20;;;;;;5011989;28;20536;-66
2023/07/23 07:36:01;;;;;;;3.30;3.00;;;23.50;72.20;;;;;;5012696;28;20485;-67
2023/07/23 07:38:30;;;;;;;3.87;2.90;;;23.70;71.20;;;;;;5013998;28;20496;-68
2023/07/23 07:40:58;;;;;;;3.77;3.47;;;23.90;72.00;;;;;;5032446;28;20469;-68
2023/07/23 07:43:26;;;;;;;3.13;2.83;;;24.20;69.60;;;;;;5046156;28;20899;-67
2023/07/23 07:45:59;;;;;;;5.60;3.00;;;24.30;68.40;;;;;;5052057;28;20468;-67
2023/07/23 07:48:27;;;;;;;4.87;3.07;;;24.30;67.90;;;;;;5051285;28;20439;-68
2023/07/23 07:50:59;;;;;;;3.10;2.80;;;24.40;67.20;;;;;;5044625;28;20480;-68
2023/07/23 07:53:27;;;;;;;3.27;2.97;;;24.50;65.40;;;;;;5029670;28;20465;-67
2023/07/23 07:55:57;;;;;;;3.07;2.70;;;24.50;63.90;;;;;;5030325;28;20533;-69
2023/07/23 07:58:25;;;;;;;3.73;2.70;;;24.60;63.70;;;;;;5035195;28;20463;-69
2023/07/23 08:00:55;;;;;;;3.30;2.70;;;24.50;64.60;;;;;;5034730;28;20430;-66
2023/07/23 08:03:24;;;;;;;2.70;2.50;;;24.50;64.30;;;;;;5011963;28;20255;-68
2023/07/23 08:05:55;;;;;;;3.93;3.00;;;24.60;64.30;;;;;;5011442;28;20446;-67
2023/07/23 08:08:26;;;;;;;3.10;2.40;;;24.70;63.60;;;;;;5011661;28;20453;-67
2023/07/23 08:10:57;;;;;;;2.60;2.40;;;24.90;64.20;;;;;;5011523;28;20498;-67
2023/07/23 08:13:25;;;;;;;3.17;2.87;;;25.10;65.20;;;;;;5011339;28;20489;-66
2023/07/23 08:15:54;;;;;;;3.40;2.70;;;25.10;61.50;;;;;;5030018;28;20448;-67
2023/07/23 08:18:23;;;;;;;2.60;2.40;;;25.10;64.00;;;;;;5051121;28;20930;-66
2023/07/23 08:20:54;;;;;;;2.93;2.63;;;25.40;62.20;;;;;;5049991;28;20459;-67
2023/07/23 08:23:23;;;;;;;3.97;2.50;;;25.30;61.20;;;;;;5030794;28;20481;-68
2023/07/23 08:25:53;;;;;;;2.73;2.50;;;25.30;61.80;;;;;;5031010;28;20491;-67
2023/07/23 08:28:27;;;;;;;2.63;2.43;;;25.50;62.00;;;;;;5031197;28;20951;-67
2023/07/23 08:30:57;;;;;;;2.87;2.60;;;25.90;61.70;;;;;;5030786;28;21004;-68
2023/07/23 08:33:28;;;;;;;3.43;2.73;;;25.90;59.80;;;;;;5031131;28;20445;-66
2023/07/23 08:35:57;;;;;;;3.93;2.50;;;26.10;59.70;;;;;;5030010;28;20526;-66
2023/07/23 08:38:26;;;;;;;2.70;2.47;;;26.20;59.80;;;;;;5029644;28;20449;-66
2023/07/23 08:41:01;;;;;;;4.93;2.50;;;25.90;59.00;;;;;;5030962;28;20527;-64
2023/07/23 08:44:11;;;;;;;3.87;2.60;;;25.90;59.00;;;;;;5030809;28;20477;-67
2023/07/23 08:46:45;;;;;;;2.93;2.27;;;26.00;58.40;;;;;;5030973;28;20870;-68
2023/07/23 08:49:16;;;;;;;2.93;2.13;;;25.70;58.60;;;;;;5031014;28;20436;-69
2023/07/23 08:51:46;;;;;;;2.50;2.00;;;25.80;58.00;;;;;;5046160;28;20550;-66
2023/07/23 08:54:15;;;;;;;2.70;2.07;;;25.80;57.10;;;;;;5047968;28;20436;-66
2023/07/23 08:56:44;;;;;;;2.23;1.70;;;25.80;57.70;;;;;;5011157;28;20446;-68
2023/07/23 08:59:14;;;;;;;2.13;1.83;;;25.80;57.30;;;;;;5010947;28;20521;-66
2023/07/23 09:01:43;;;;;;;2.80;2.47;;;25.70;55.80;;;;;;5010741;28;20474;-67
2023/07/23 09:04:12;;;;;;;2.50;1.80;;;25.60;57.10;;;;;;5010240;28;20488;-66
2023/07/23 09:06:42;;;;;;;2.67;1.87;;;25.70;57.20;;;;;;5022002;28;20457;-65
2023/07/23 09:09:12;;;;;;;1.87;1.70;;;25.70;57.40;;;;;;5030429;28;20518;-66
2023/07/23 09:11:40;;;;;;;1.83;1.73;;;25.90;56.30;;;;;;5030380;28;20469;-67
2023/07/23 09:14:11;;;;;;;2.20;2.00;;;25.90;57.10;;;;;;5030811;28;20503;-68
2023/07/23 09:16:42;;;;;;;3.20;1.97;;;25.90;56.80;;;;;;5030048;28;20965;-66
2023/07/23 09:19:11;;;;;;;2.47;1.90;;;25.90;57.90;;;;;;5028697;28;20447;-67
2023/07/23 09:21:41;;;;;;;2.60;1.87;;;25.90;56.90;;;;;;5009800;28;20547;-66
2023/07/23 09:24:13;;;;;;;2.13;1.93;;;26.40;57.10;;;;;;5010787;28;20482;-66
2023/07/23 09:26:42;;;;;;;2.30;2.10;;;26.60;55.80;;;;;;5010518;28;20449;-66
2023/07/23 09:29:12;;;;;;;2.60;2.40;;;26.50;55.90;;;;;;5022429;28;20503;-66
2023/07/23 09:31:45;;;;;;;2.40;1.90;;;26.80;54.90;;;;;;5020731;28;20496;-66
2023/07/23 09:34:21;;;;;;;4.07;2.10;;;26.80;55.10;;;;;;5009956;28;20445;-66
2023/07/23 09:36:53;;;;;;;2.50;2.30;;;26.80;55.80;;;;;;5025504;28;20449;-66
2023/07/23 09:39:24;;;;;;;2.90;2.13;;;27.10;54.70;;;;;;5033886;28;20448;-66
2023/07/23 09:41:52;;;;;;;3.83;2.40;;;27.40;54.50;;;;;;5035367;28;20468;-66
2023/07/23 09:44:25;;;;;;;2.80;2.27;;;27.50;54.40;;;;;;5028263;28;20506;-65
2023/07/23 09:46:58;;;;;;;2.50;2.30;;;27.60;54.50;;;;;;5026241;28;20476;-65
2023/07/23 09:49:29;;;;;;;2.60;2.40;;;27.40;52.90;;;;;;5025417;28;20455;-66
2023/07/23 09:51:57;;;;;;;2.23;2.03;;;27.10;53.90;;;;;;5026611;28;20528;-65
2023/07/23 09:54:26;;;;;;;2.30;2.10;;;26.80;54.30;;;;;;5043967;28;20683;-66
2023/07/23 09:56:55;;;;;;;2.90;2.00;;;26.80;55.30;;;;;;5030606;28;21105;-65
2023/07/23 09:59:24;;;;;;;2.80;2.60;;;27.20;54.40;;;;;;5023831;28;20460;-65
2023/07/23 10:01:54;;;;;;;2.60;2.40;;;27.60;53.50;;;;;;5010894;28;20552;-66
2023/07/23 10:04:24;;;;;;;2.50;2.27;;;27.80;52.30;;;;;;5007445;28;20584;-65
2023/07/23 10:06:53;;;;;;;2.50;2.13;;;27.80;51.90;;;;;;5007811;28;20457;-65
2023/07/23 10:09:23;;;;;;;2.43;2.23;;;27.80;51.40;;;;;;5007732;28;21027;-66
2023/07/23 10:11:51;;;;;;;2.80;2.60;;;28.00;51.40;;;;;;5006787;28;20462;-66
2023/07/23 10:14:19;;;;;;;3.27;2.33;;;28.50;51.90;;;;;;5015965;28;20672;-66
2023/07/23 10:16:48;;;;;;;2.83;2.60;;;29.50;49.70;;;;;;5022677;28;20450;-65
2023/07/23 10:19:20;;;;;;;3.43;2.40;;;29.90;48.70;;;;;;5016303;28;20532;-65
2023/07/23 10:21:50;;;;;;;2.73;2.50;;;29.40;46.60;;;;;;5018003;28;20469;-66
2023/07/23 10:24:18;;;;;;;2.60;2.00;;;28.60;48.80;;;;;;5017648;28;20473;-65
2023/07/23 10:26:48;;;;;;;2.83;2.23;;;28.90;48.00;;;;;;5016131;28;20453;-66
2023/07/23 10:29:21;;;;;;;3.00;2.60;;;28.90;47.80;;;;;;5015160;28;20465;-66
2023/07/23 10:31:49;;;;;;;3.57;3.27;;;28.90;48.20;;;;;;5005131;28;20442;-66
2023/07/23 10:34:42;;;;;;;2.80;2.13;;;29.10;46.90;;;;;;5013359;28;21105;-65
2023/07/23 10:37:12;;;;;;;3.37;2.87;;;28.30;48.00;;;;;;5011137;28;20500;-65
2023/07/23 10:39:41;;;;;;;2.40;2.20;;;27.70;48.60;;;;;;5009151;28;20520;-66
2023/07/23 10:42:09;;;;;;;3.60;2.50;;;28.00;49.10;;;;;;5015886;28;20425;-65
2023/07/23 10:44:39;;;;;;;2.63;2.17;;;28.60;47.70;;;;;;5017983;28;20556;-65
2023/07/23 10:47:31;;;;;;;2.83;2.50;;;28.60;46.10;;;;;;5015133;28;20453;-64
2023/07/23 10:50:14;;;;;;;2.57;2.10;;;28.70;46.80;;;;;;5019901;28;20461;-64
2023/07/23 10:52:44;;;;;;;3.77;2.80;;;29.40;45.20;;;;;;5025925;28;20505;-66
2023/07/23 10:55:13;;;;;;;2.93;2.60;;;29.10;45.80;;;;;;5026237;28;20440;-66
2023/07/23 10:57:43;;;;;;;3.70;2.67;;;28.80;45.20;;;;;;5020666;28;20448;-66
2023/07/23 11:00:21;;;;;;;2.73;2.53;;;28.40;46.40;;;;;;5028890;28;20453;-65
2023/07/23 11:02:54;;;;;;;3.37;2.67;;;28.10;47.20;;;;;;5029128;28;20429;-65
2023/07/23 11:05:25;;;;;;;3.00;2.80;;;28.10;47.20;;;;;;5029498;28;20566;-66
2023/07/23 11:08:13;;;;;;;3.10;2.57;;;27.90;47.70;;;;;;5010571;28;20549;-65
2023/07/23 11:10:53;;;;;;;2.30;2.10;;;27.80;47.80;;;;;;5013739;28;20472;-67
2023/07/23 11:13:26;;;;;;;2.53;2.33;;;28.30;46.20;;;;;;5022756;28;20828;-65
2023/07/23 11:15:54;;;;;;;2.23;1.90;;;28.00;46.70;;;;;;5022265;28;20522;-65
2023/07/23 11:18:24;;;;;;;3.07;2.73;;;27.70;47.60;;;;;;5023216;28;20559;-66
2023/07/23 11:20:56;;;;;;;3.70;2.37;;;27.50;48.30;;;;;;5017495;28;20484;-67
2023/07/23 11:23:25;;;;;;;4.00;2.63;;;27.60;47.00;;;;;;5021437;28;20440;-66
2023/07/23 11:25:55;;;;;;;2.50;2.30;;;28.10;46.20;;;;;;5026122;28;20544;-66
2023/07/23 11:28:24;;;;;;;3.07;2.73;;;29.10;47.30;;;;;;5018460;28;20479;-66
2023/07/23 11:30:55;;;;;;;2.70;2.50;;;30.10;43.10;;;;;;5036787;28;20455;-67
2023/07/23 11:33:29;;;;;;;4.13;2.60;;;30.50;41.80;;;;;;5021135;28;20445;-68
2023/07/23 11:36:00;;;;;;;3.07;2.30;;;30.50;42.00;;;;;;5012761;28;20438;-66
2023/07/23 11:38:28;;;;;;;3.30;2.77;;;30.30;40.50;;;;;;5017589;28;20433;-69
2023/07/23 11:41:00;;;;;;;3.00;2.50;;;29.80;40.80;;;;;;5018674;28;20486;-66
2023/07/23 11:43:28;;;;;;;2.70;2.50;;;29.90;41.20;;;;;;5016388;28;20446;-67
2023/07/23 11:45:56;;;;;;;5.00;2.97;;;30.60;40.10;;;;;;5019117;28;20477;-67
2023/07/23 11:48:24;;;;;;;2.60;2.40;;;31.20;39.00;;;;;;5016825;28;20458;-66
2023/07/23 11:50:53;;;;;;;5.77;2.97;;;31.10;39.70;;;;;;5020300;28;20575;-67
2023/07/23 11:53:38;;;;;;;4.27;2.33;;;31.00;40.20;;;;;;5015425;28;20809;-67
2023/07/23 11:56:07;;;;;;;3.03;2.73;;;31.10;39.10;;;;;;5017720;28;20434;-66
2023/07/23 11:58:37;;;;;;;4.97;3.10;;;30.70;38.10;;;;;;5018205;28;20433;-67
2023/07/23 12:01:07;;;;;;;3.17;2.70;;;29.80;39.50;;;;;;5010167;28;20612;-67
2023/07/23 12:03:39;;;;;;;2.97;2.67;;;29.60;40.00;;;;;;5020623;28;20496;-67
2023/07/23 12:06:07;;;;;;;5.17;2.93;;;29.90;40.00;;;;;;5019936;28;20488;-66
2023/07/23 12:08:38;;;;;;;3.40;3.10;;;30.20;40.70;;;;;;5018471;28;20486;-71
2023/07/23 12:11:10;;;;;;;3.50;2.97;;;30.10;40.50;;;;;;5017459;28;20470;-65
2023/07/23 12:13:52;;;;;;;3.17;2.87;;;29.70;40.70;;;;;;5017783;28;20533;-66
2023/07/23 12:16:35;;;;;;;2.77;2.57;;;29.40;41.40;;;;;;5016198;28;20857;-69
2023/07/23 12:19:04;;;;;;;2.67;2.47;;;29.20;40.90;;;;;;5016938;28;20473;-67
2023/07/23 12:21:35;;;;;;;4.20;3.40;;;29.20;41.70;;;;;;5021099;28;20999;-71
2023/07/23 12:24:14;;;;;;;3.63;3.33;;;28.70;40.70;;;;;;5018887;28;20437;-70
2023/07/23 12:26:43;;;;;;;3.50;2.97;;;28.40;41.70;;;;;;5015035;28;20588;-66
2023/07/23 12:29:11;;;;;;;4.33;2.83;;;28.10;42.00;;;;;;5017346;28;20495;-70
2023/07/23 12:31:41;;;;;;;3.17;2.87;;;27.80;42.00;;;;;;5018703;28;20593;-67
2023/07/23 12:34:10;;;;;;;3.33;2.77;;;27.50;43.00;;;;;;5018663;28;20867;-66
2023/07/23 12:36:39;;;;;;;2.87;2.57;;;27.30;43.20;;;;;;5020658;28;20469;-66
2023/07/23 12:39:08;;;;;;;3.20;2.90;;;27.40;44.30;;;;;;5014206;28;20446;-69
2023/07/23 12:41:38;;;;;;;4.20;3.30;;;27.40;44.20;;;;;;5011615;28;20461;-66
2023/07/23 12:44:06;;;;;;;3.50;3.20;;;27.30;44.70;;;;;;5021702;28;20438;-68
2023/07/23 12:46:34;;;;;;;4.23;3.70;;;27.20;45.40;;;;;;5013408;28;20552;-66
2023/07/23 12:49:02;;;;;;;4.33;3.60;;;27.30;44.80;;;;;;5022869;28;20464;-70
2023/07/23 12:51:30;;;;;;;3.57;3.20;;;27.40;45.50;;;;;;5012962;28;20560;-72
2023/07/23 12:53:58;;;;;;;4.07;3.03;;;27.60;44.90;;;;;;5023089;28;20963;-66
2023/07/23 12:56:27;;;;;;;3.30;3.00;;;27.80;44.70;;;;;;5021311;28;20429;-66
2023/07/23 12:58:57;;;;;;;3.80;3.50;;;27.80;44.40;;;;;;5015372;28;20461;-67
2023/07/23 13:01:26;;;;;;;3.87;3.43;;;27.60;45.20;;;;;;5017010;28;20465;-68